Time;durP1;ratioP1;P1;durP2;ratioP2;P2;SDS_P1;SDS_P2;PMS_P1;PMS_P2;Temp;Humidity;BMP_temperature;BMP_pressure;BME280_temperature;BME280_humidity;BME280_pressure;Samples;Min_cycle;Max_cycle;Signal;HPM_P1;HPM_P2
2023/12/11 00:01:16;;;;;;;7.83;2.10;;;5.10;99.90;;;;;;7807854;28;20182;-88
2023/12/11 00:05:02;;;;;;;10.63;2.10;;;5.00;99.90;;;;;;7819919;28;20630;-88
2023/12/11 00:08:48;;;;;;;7.23;2.13;;;4.90;99.90;;;;;;7832180;28;20189;-88
2023/12/11 00:12:34;;;;;;;8.13;2.30;;;4.90;99.90;;;;;;7834800;28;20214;-88
2023/12/11 00:16:19;;;;;;;11.13;2.70;;;4.90;99.90;;;;;;7830360;28;20200;-88
2023/12/11 00:20:06;;;;;;;10.60;2.77;;;4.80;99.90;;;;;;7813376;28;20241;-88
2023/12/11 00:23:52;;;;;;;10.60;2.40;;;4.80;99.90;;;;;;7835707;28;20563;-88
2023/12/11 00:27:38;;;;;;;11.13;3.10;;;4.80;99.90;;;;;;7817061;28;20186;-89
2023/12/11 00:31:24;;;;;;;12.20;3.00;;;4.80;99.90;;;;;;7830976;28;20221;-89
2023/12/11 00:35:09;;;;;;;7.97;2.53;;;4.70;99.90;;;;;;7827308;28;20194;-88
2023/12/11 00:38:55;;;;;;;4.87;2.20;;;4.70;99.90;;;;;;7820712;28;20604;-88
2023/12/11 00:42:41;;;;;;;13.33;2.33;;;4.70;99.90;;;;;;7804881;28;20183;-89
2023/12/11 00:46:26;;;;;;;6.37;2.00;;;4.70;99.90;;;;;;7824095;28;20206;-88
2023/12/11 00:50:12;;;;;;;9.90;2.33;;;4.70;99.90;;;;;;7838688;28;20237;-88
2023/12/11 00:53:58;;;;;;;8.20;1.87;;;4.70;99.90;;;;;;7835130;28;20758;-88
2023/12/11 00:57:43;;;;;;;7.17;1.90;;;4.70;99.90;;;;;;7837085;28;20214;-87
2023/12/11 01:01:29;;;;;;;6.77;1.50;;;4.70;99.90;;;;;;7822648;28;20197;-89
2023/12/11 01:05:15;;;;;;;7.07;1.83;;;4.70;99.90;;;;;;7854133;28;20283;-87
2023/12/11 01:09:00;;;;;;;5.17;1.87;;;4.70;99.90;;;;;;7836249;28;20249;-87
2023/12/11 01:12:46;;;;;;;4.93;1.30;;;4.80;99.90;;;;;;7855181;28;20214;-88
2023/12/11 01:16:32;;;;;;;3.63;0.93;;;4.80;99.90;;;;;;7825625;28;20547;-88
2023/12/11 01:20:17;;;;;;;1.83;0.80;;;5.00;99.90;;;;;;7828193;28;20197;-88
2023/12/11 01:24:03;;;;;;;3.27;0.60;;;5.10;99.90;;;;;;7821565;28;20207;-88
2023/12/11 01:27:49;;;;;;;3.83;0.90;;;5.20;99.90;;;;;;7817546;28;20178;-88
2023/12/11 01:31:35;;;;;;;5.57;1.10;;;5.40;99.90;;;;;;7826674;28;20260;-88
2023/12/11 01:35:20;;;;;;;5.50;0.90;;;5.50;99.90;;;;;;7815255;28;20201;-88
2023/12/11 01:39:06;;;;;;;3.37;0.83;;;5.60;99.90;;;;;;7832765;28;20190;-88
2023/12/11 01:42:52;;;;;;;2.77;0.93;;;5.60;99.90;;;;;;7837299;28;20205;-88
2023/12/11 01:46:39;;;;;;;2.57;0.80;;;5.70;99.90;;;;;;7838525;28;20198;-88
2023/12/11 01:50:25;;;;;;;2.97;0.80;;;5.70;99.90;;;;;;7831397;28;20241;-88
2023/12/11 01:54:11;;;;;;;2.40;0.87;;;5.70;99.90;;;;;;7829211;28;20210;-88
2023/12/11 01:57:57;;;;;;;5.73;0.90;;;5.80;99.90;;;;;;7837722;28;20185;-88
2023/12/11 02:01:44;;;;;;;3.07;0.80;;;5.80;99.90;;;;;;7837377;28;20271;-88
2023/12/11 02:05:29;;;;;;;6.77;0.77;;;5.80;99.90;;;;;;7826020;28;20214;-87
2023/12/11 02:09:15;;;;;;;7.23;0.70;;;5.90;99.90;;;;;;7807141;28;20262;-88
2023/12/11 02:13:01;;;;;;;1.70;0.53;;;5.90;99.90;;;;;;7826127;28;20240;-88
2023/12/11 02:16:47;;;;;;;2.23;0.50;;;5.80;99.90;;;;;;7851078;28;20206;-87
2023/12/11 02:20:33;;;;;;;2.27;0.70;;;5.90;99.90;;;;;;7831357;28;20284;-88
2023/12/11 02:24:25;;;;;;;2.80;0.80;;;5.90;99.90;;;;;;7824650;28;20233;-87
2023/12/11 02:28:11;;;;;;;5.50;0.80;;;5.90;99.90;;;;;;7815374;28;20285;-88
2023/12/11 02:31:57;;;;;;;6.47;0.90;;;6.00;99.90;;;;;;7811535;28;20202;-88
2023/12/11 02:35:45;;;;;;;2.70;0.70;;;6.00;99.90;;;;;;7808392;28;20198;-88
2023/12/11 02:39:31;;;;;;;1.97;0.90;;;6.00;99.90;;;;;;7809499;28;20182;-88
2023/12/11 02:43:16;;;;;;;6.23;0.90;;;6.00;99.90;;;;;;7809227;28;20479;-89
2023/12/11 02:47:02;;;;;;;5.40;0.77;;;6.10;99.90;;;;;;7809901;28;20198;-88
2023/12/11 02:50:48;;;;;;;1.63;0.60;;;6.10;99.90;;;;;;7824792;28;20681;-88
2023/12/11 02:54:33;;;;;;;2.93;0.80;;;6.10;99.90;;;;;;7810654;28;20795;-88
2023/12/11 02:58:19;;;;;;;1.40;0.70;;;6.10;99.90;;;;;;7824499;28;20175;-88
2023/12/11 03:02:04;;;;;;;3.37;0.80;;;6.10;99.90;;;;;;7829759;28;20189;-88
2023/12/11 03:05:51;;;;;;;3.60;0.67;;;6.10;99.90;;;;;;7814503;28;20308;-89
2023/12/11 03:09:36;;;;;;;2.73;0.67;;;6.10;99.90;;;;;;7823397;28;20188;-88
2023/12/11 03:13:22;;;;;;;3.33;0.70;;;6.20;99.90;;;;;;7832180;28;20694;-88
2023/12/11 03:17:07;;;;;;;3.37;0.57;;;6.10;99.90;;;;;;7843908;28;20285;-89
2023/12/11 03:20:53;;;;;;;2.50;0.63;;;6.20;99.90;;;;;;7830549;28;20183;-87
2023/12/11 03:24:39;;;;;;;4.73;0.60;;;6.10;99.90;;;;;;7820479;28;20217;-88
2023/12/11 03:28:28;;;;;;;2.20;0.60;;;6.10;99.90;;;;;;7814594;28;20193;-88
2023/12/11 03:32:14;;;;;;;4.23;0.87;;;6.10;99.90;;;;;;7819397;28;20334;-88
2023/12/11 03:35:59;;;;;;;3.17;0.87;;;6.10;99.90;;;;;;7815299;28;20742;-88
2023/12/11 03:39:45;;;;;;;5.83;1.23;;;6.10;99.90;;;;;;7825854;28;20626;-88
2023/12/11 03:43:31;;;;;;;4.63;1.00;;;6.10;99.90;;;;;;7817058;28;20333;-88
2023/12/11 03:47:17;;;;;;;4.60;1.30;;;6.20;99.90;;;;;;7815396;28;20543;-88
2023/12/11 03:51:03;;;;;;;3.23;1.00;;;6.10;99.90;;;;;;7819525;28;20189;-88
2023/12/11 03:54:58;;;;;;;2.73;1.00;;;6.20;99.90;;;;;;7823933;28;20249;-87
2023/12/11 03:58:43;;;;;;;5.53;1.50;;;6.20;99.90;;;;;;7823116;28;20184;-88
2023/12/11 04:02:32;;;;;;;4.13;1.20;;;6.20;99.90;;;;;;7825216;28;20229;-88
2023/12/11 04:06:18;;;;;;;3.77;1.33;;;6.30;99.90;;;;;;7822866;28;20437;-87
2023/12/11 04:10:04;;;;;;;3.10;1.10;;;6.30;99.90;;;;;;7825027;28;20246;-87
2023/12/11 04:13:49;;;;;;;5.10;1.10;;;6.30;99.90;;;;;;7816319;28;20735;-87
2023/12/11 04:17:36;;;;;;;2.60;0.73;;;6.30;99.90;;;;;;7825299;28;20182;-87
2023/12/11 04:21:25;;;;;;;2.77;0.77;;;6.30;99.90;;;;;;7813148;28;20181;-88
2023/12/11 04:25:11;;;;;;;7.93;1.60;;;6.30;99.90;;;;;;7820445;28;20213;-88
2023/12/11 04:28:56;;;;;;;3.13;0.80;;;6.30;99.90;;;;;;7836989;28;20170;-88
2023/12/11 04:32:42;;;;;;;5.97;1.17;;;6.30;99.90;;;;;;7826426;28;20202;-88
2023/12/11 04:36:28;;;;;;;6.63;1.37;;;6.40;99.90;;;;;;7841151;28;20198;-88
2023/12/11 04:40:13;;;;;;;4.07;1.20;;;6.40;99.90;;;;;;7829041;28;20183;-88
2023/12/11 04:43:59;;;;;;;6.13;1.43;;;6.50;99.90;;;;;;7832059;28;20898;-87
2023/12/11 04:47:45;;;;;;;3.97;1.50;;;6.50;99.90;;;;;;7827812;28;20552;-89
2023/12/11 04:51:30;;;;;;;3.83;1.10;;;6.50;99.90;;;;;;7870962;22;20698;-89
2023/12/11 04:55:16;;;;;;;9.03;1.43;;;6.50;99.90;;;;;;7878558;28;20197;-89
2023/12/11 04:59:02;;;;;;;2.57;0.90;;;6.50;99.90;;;;;;7888896;28;20177;-88
2023/12/11 05:02:47;;;;;;;3.90;1.10;;;6.60;99.90;;;;;;7859572;28;20224;-88
2023/12/11 05:06:33;;;;;;;4.70;1.00;;;6.60;99.90;;;;;;7863604;28;20646;-89
2023/12/11 05:10:19;;;;;;;7.90;1.27;;;6.60;99.90;;;;;;7863229;28;20178;-89
2023/12/11 05:14:05;;;;;;;4.50;0.90;;;6.60;99.90;;;;;;7868613;28;20204;-90
2023/12/11 05:17:50;;;;;;;4.97;1.07;;;6.60;99.90;;;;;;7871680;28;20284;-88
2023/12/11 05:21:36;;;;;;;7.20;1.13;;;6.60;99.90;;;;;;7852266;28;20212;-88
2023/12/11 05:25:22;;;;;;;3.90;1.10;;;6.60;99.90;;;;;;7853769;28;20200;-89
2023/12/11 05:29:07;;;;;;;7.63;1.30;;;6.60;99.90;;;;;;7890487;28;20186;-87
2023/12/11 05:32:53;;;;;;;5.53;1.00;;;6.60;99.90;;;;;;7856982;28;20296;-88
2023/12/11 05:36:38;;;;;;;6.23;1.00;;;6.60;99.90;;;;;;7861446;28;20209;-88
2023/12/11 05:40:26;;;;;;;5.77;1.43;;;6.60;99.90;;;;;;7870887;28;20189;-88
2023/12/11 05:44:11;;;;;;;5.80;1.07;;;6.70;99.90;;;;;;7869818;28;20198;-88
2023/12/11 05:47:57;;;;;;;2.10;1.03;;;6.70;99.90;;;;;;7868379;28;20203;-88
2023/12/11 05:51:43;;;;;;;5.70;1.63;;;6.70;99.90;;;;;;7870808;28;20201;-90
2023/12/11 05:55:28;;;;;;;4.87;1.20;;;6.70;99.90;;;;;;7870547;28;20288;-88
2023/12/11 05:59:14;;;;;;;8.13;1.27;;;6.60;99.90;;;;;;7868319;28;20571;-88
2023/12/11 06:03:00;;;;;;;2.67;0.80;;;6.60;99.90;;;;;;7902106;28;20184;-89
2023/12/11 06:06:46;;;;;;;3.73;1.00;;;6.60;99.90;;;;;;7901257;28;20693;-89
2023/12/11 06:10:33;;;;;;;3.50;1.20;;;6.60;99.90;;;;;;7903204;28;20233;-88
2023/12/11 06:14:19;;;;;;;8.60;1.20;;;6.60;99.90;;;;;;7877674;28;20288;-88
2023/12/11 06:18:06;;;;;;;5.60;1.27;;;6.50;99.90;;;;;;7860492;28;20265;-89
2023/12/11 06:21:52;;;;;;;4.07;1.17;;;6.50;99.90;;;;;;7852585;28;20190;-89
2023/12/11 06:25:37;;;;;;;6.60;1.17;;;6.50;99.90;;;;;;7838497;28;20202;-89
2023/12/11 06:29:23;;;;;;;4.70;0.80;;;6.50;99.90;;;;;;7840894;28;20260;-89
2023/12/11 06:33:09;;;;;;;1.97;1.00;;;6.40;99.90;;;;;;7852804;28;20256;-88
2023/12/11 06:36:54;;;;;;;2.47;1.20;;;6.40;99.90;;;;;;7869139;28;20215;-89
2023/12/11 06:40:40;;;;;;;5.07;1.40;;;6.40;99.90;;;;;;7869893;28;20614;-89
2023/12/11 06:44:26;;;;;;;4.87;1.20;;;6.30;99.90;;;;;;7867871;28;20291;-88
2023/12/11 06:48:12;;;;;;;3.57;1.17;;;6.30;99.90;;;;;;7853231;28;20200;-88
2023/12/11 06:51:58;;;;;;;5.17;1.10;;;6.30;99.90;;;;;;7869592;28;20311;-89
2023/12/11 06:55:43;;;;;;;3.87;1.17;;;6.20;99.90;;;;;;7851867;28;20232;-89
2023/12/11 06:59:30;;;;;;;4.73;1.37;;;6.20;99.90;;;;;;7844406;28;20173;-89
2023/12/11 07:03:16;;;;;;;5.10;1.30;;;6.20;99.90;;;;;;7861568;28;20646;-89
2023/12/11 07:07:02;;;;;;;10.40;1.63;;;6.20;99.90;;;;;;7867336;28;20571;-89
2023/12/11 07:10:48;;;;;;;4.03;1.60;;;6.20;99.90;;;;;;7869065;28;20181;-89
2023/12/11 07:14:34;;;;;;;5.70;1.17;;;6.20;99.90;;;;;;7866625;28;20212;-89
2023/12/11 07:18:20;;;;;;;3.73;1.07;;;6.20;99.90;;;;;;7868993;28;20173;-89
2023/12/11 07:22:06;;;;;;;4.97;1.20;;;6.30;99.90;;;;;;7868432;28;20274;-89
2023/12/11 07:25:51;;;;;;;3.90;1.27;;;6.30;99.90;;;;;;7858084;28;20202;-89
2023/12/11 07:29:37;;;;;;;3.23;0.83;;;6.30;99.90;;;;;;7855194;28;20180;-89
2023/12/11 07:33:23;;;;;;;8.57;1.00;;;6.30;99.90;;;;;;7868879;28;20201;-89
2023/12/11 07:37:09;;;;;;;6.97;1.17;;;6.40;99.90;;;;;;7867748;28;20668;-89
2023/12/11 07:40:56;;;;;;;2.03;0.97;;;6.40;99.90;;;;;;7868525;28;20570;-89
2023/12/11 07:44:42;;;;;;;7.87;1.50;;;6.40;99.90;;;;;;7869158;28;20200;-89
2023/12/11 07:48:28;;;;;;;6.03;1.40;;;6.40;99.90;;;;;;7868294;28;20181;-89
2023/12/11 07:52:14;;;;;;;5.93;1.23;;;6.50;99.90;;;;;;7868038;28;20217;-89
2023/12/11 07:56:00;;;;;;;2.70;1.27;;;6.50;99.90;;;;;;7858016;28;20194;-89
2023/12/11 07:59:46;;;;;;;3.50;0.90;;;6.60;99.90;;;;;;7837982;28;20185;-89
2023/12/11 08:03:32;;;;;;;2.77;0.97;;;6.60;99.90;;;;;;7845474;28;20239;-89
2023/12/11 08:07:18;;;;;;;4.60;1.30;;;6.60;99.90;;;;;;7842625;28;20544;-89
2023/12/11 08:11:04;;;;;;;6.47;1.10;;;6.70;99.90;;;;;;7843459;28;20270;-89
2023/12/11 08:14:49;;;;;;;5.27;1.40;;;6.80;99.90;;;;;;7850025;28;20217;-89
2023/12/11 08:18:35;;;;;;;5.40;1.10;;;6.80;99.90;;;;;;7868871;28;20559;-89
2023/12/11 08:22:21;;;;;;;6.40;1.50;;;6.80;99.90;;;;;;7874085;28;20177;-90
2023/12/11 08:26:09;;;;;;;6.50;2.60;;;6.90;99.90;;;;;;7865042;28;20243;-88
2023/12/11 08:29:55;;;;;;;6.60;1.47;;;6.90;99.90;;;;;;7873893;28;20219;-89
2023/12/11 08:33:41;;;;;;;7.20;2.17;;;6.90;99.90;;;;;;7873564;28;20209;-90
2023/12/11 08:37:26;;;;;;;5.77;1.77;;;6.90;99.90;;;;;;7874035;28;20170;-89
2023/12/11 08:41:12;;;;;;;6.40;1.70;;;6.90;99.90;;;;;;7873448;28;20182;-89
2023/12/11 08:45:00;;;;;;;8.10;2.00;;;6.90;99.90;;;;;;7837652;28;20212;-89
2023/12/11 08:48:46;;;;;;;4.43;1.50;;;6.90;99.90;;;;;;7842358;28;20181;-89
2023/12/11 08:52:31;;;;;;;6.73;1.70;;;7.00;99.90;;;;;;7856729;28;20213;-90
2023/12/11 08:56:20;;;;;;;4.53;1.77;;;7.00;99.90;;;;;;7841713;28;20198;-89
2023/12/11 09:00:34;;;;;;;5.20;2.03;;;7.00;99.90;;;;;;7848055;28;20173;-89
2023/12/11 09:04:19;;;;;;;12.13;4.27;;;7.10;99.90;;;;;;7863137;28;20611;-89
2023/12/11 09:08:05;;;;;;;4.33;1.60;;;7.20;99.90;;;;;;7872649;28;20242;-89
2023/12/11 09:11:51;;;;;;;6.30;1.10;;;7.30;99.90;;;;;;7871707;28;20272;-88
2023/12/11 09:15:37;;;;;;;5.63;1.33;;;7.40;99.90;;;;;;7871306;28;20820;-89
2023/12/11 09:19:23;;;;;;;6.13;1.20;;;7.50;99.90;;;;;;7872274;28;20703;-89
2023/12/11 09:23:15;;;;;;;6.40;1.20;;;7.50;99.90;;;;;;7873697;28;20173;-89
2023/12/11 09:27:00;;;;;;;3.70;1.00;;;7.60;99.90;;;;;;7871877;28;20255;-89
2023/12/11 09:30:46;;;;;;;1.77;1.20;;;7.70;99.90;;;;;;7872977;28;20229;-89
2023/12/11 09:34:35;;;;;;;3.50;1.10;;;7.70;99.90;;;;;;7897002;28;20213;-90
2023/12/11 09:38:20;;;;;;;6.10;1.63;;;7.70;99.90;;;;;;7911738;28;20229;-89
2023/12/11 09:42:07;;;;;;;7.77;3.10;;;7.70;99.90;;;;;;7880189;28;20257;-89
2023/12/11 09:45:54;;;;;;;9.40;2.70;;;7.70;99.90;;;;;;7843808;28;20800;-88
2023/12/11 09:49:40;;;;;;;13.00;4.47;;;7.70;99.90;;;;;;7839506;28;20231;-89
2023/12/11 09:53:30;;;;;;;12.00;5.30;;;7.70;99.90;;;;;;7840129;28;20221;-89
2023/12/11 09:57:16;;;;;;;10.90;2.00;;;7.80;99.90;;;;;;7864630;28;20416;-89
2023/12/11 10:01:03;;;;;;;34.50;17.30;;;7.90;99.90;;;;;;7850514;28;20181;-89
2023/12/11 10:05:04;;;;;;;8.90;2.20;;;7.90;99.90;;;;;;7869882;28;20240;-89
2023/12/11 10:08:53;;;;;;;6.53;1.50;;;8.00;99.90;;;;;;7864883;28;20666;-89
2023/12/11 10:12:40;;;;;;;5.73;1.67;;;8.10;99.90;;;;;;7866359;28;20208;-89
2023/12/11 10:16:29;;;;;;;5.40;1.40;;;8.10;99.90;;;;;;7868871;28;20209;-89
2023/12/11 10:20:18;;;;;;;4.10;1.23;;;8.10;99.90;;;;;;7871508;28;20184;-89
2023/12/11 10:24:13;;;;;;;6.83;1.20;;;8.20;99.90;;;;;;7863333;28;20233;-89
2023/12/11 10:28:10;;;;;;;6.83;1.57;;;8.20;99.90;;;;;;7847540;28;20172;-88
2023/12/11 10:32:06;;;;;;;5.10;1.77;;;8.20;99.90;;;;;;7840874;28;20544;-89
2023/12/11 10:36:13;;;;;;;7.03;1.53;;;8.30;99.90;;;;;;7847322;28;20737;-89
2023/12/11 10:39:58;;;;;;;3.47;1.37;;;8.40;99.90;;;;;;7838966;28;20186;-89
2023/12/11 10:43:44;;;;;;;3.53;0.83;;;8.50;99.90;;;;;;7846419;28;20215;-89
2023/12/11 10:47:31;;;;;;;7.20;1.00;;;8.50;99.90;;;;;;7863766;28;20182;-89
2023/12/11 10:51:17;;;;;;;8.30;1.20;;;8.50;99.90;;;;;;7838102;28;20213;-89
2023/12/11 10:55:03;;;;;;;5.23;1.20;;;8.50;99.90;;;;;;7837080;28;20209;-90
2023/12/11 10:58:49;;;;;;;15.50;7.77;;;8.50;99.90;;;;;;7855737;28;20205;-89
2023/12/11 11:02:35;;;;;;;13.67;6.83;;;8.60;99.90;;;;;;7868748;28;20280;-89
2023/12/11 11:06:22;;;;;;;5.97;2.77;;;8.60;99.90;;;;;;7868924;28;20197;-89
2023/12/11 11:10:22;;;;;;;6.03;1.70;;;8.60;99.90;;;;;;7868477;28;20596;-89
2023/12/11 11:14:42;;;;;;;4.07;1.20;;;8.80;99.90;;;;;;7859589;28;20685;-89
2023/12/11 11:18:49;;;;;;;3.77;1.00;;;8.80;99.90;;;;;;7842409;28;20635;-88
2023/12/11 11:22:39;;;;;;;7.07;1.10;;;8.90;99.90;;;;;;7851970;28;20720;-89
2023/12/11 11:26:35;;;;;;;7.80;1.13;;;8.90;99.90;;;;;;7839249;28;21692;-89
2023/12/11 11:30:44;;;;;;;3.50;0.73;;;9.00;99.90;;;;;;7836761;28;20192;-89
2023/12/11 11:34:41;;;;;;;4.63;1.10;;;9.00;99.90;;;;;;7848078;28;20578;-88
2023/12/11 11:38:56;;;;;;;1.63;0.70;;;9.10;99.90;;;;;;7868134;28;20268;-89
2023/12/11 11:42:42;;;;;;;3.77;0.77;;;9.10;99.90;;;;;;7867714;28;20529;-89
2023/12/11 11:46:46;;;;;;;3.13;1.07;;;9.20;99.90;;;;;;7866650;28;20232;-89
2023/12/11 11:50:32;;;;;;;4.60;0.70;;;9.20;99.90;;;;;;7867461;28;20235;-88
2023/12/11 11:54:18;;;;;;;4.03;0.93;;;9.30;99.90;;;;;;7853139;28;20206;-89
2023/12/11 11:58:16;;;;;;;5.63;0.90;;;9.30;99.90;;;;;;7844648;28;20253;-89
2023/12/11 12:02:03;;;;;;;5.57;1.47;;;9.30;99.90;;;;;;7861270;28;20217;-89
2023/12/11 12:05:55;;;;;;;2.30;0.70;;;9.40;99.90;;;;;;7835512;28;20296;-89
2023/12/11 12:09:41;;;;;;;2.37;0.90;;;9.40;99.90;;;;;;7837709;28;20177;-88
2023/12/11 12:13:32;;;;;;;5.17;1.07;;;9.40;99.90;;;;;;7836275;28;20304;-89
2023/12/11 12:17:18;;;;;;;3.27;0.90;;;9.50;99.90;;;;;;7862407;28;20170;-89
2023/12/11 12:21:04;;;;;;;4.83;1.10;;;9.40;99.90;;;;;;7866549;28;20186;-88
2023/12/11 12:24:51;;;;;;;1.90;0.77;;;9.40;99.90;;;;;;7842468;28;20198;-89
2023/12/11 12:28:37;;;;;;;2.17;0.70;;;9.40;99.90;;;;;;7836082;28;20174;-90
2023/12/11 12:32:24;;;;;;;3.13;0.80;;;9.30;99.90;;;;;;7835594;28;20201;-89
2023/12/11 12:36:11;;;;;;;4.30;1.00;;;9.20;99.90;;;;;;7834998;28;20206;-90
2023/12/11 12:39:57;;;;;;;1.80;0.50;;;9.10;99.90;;;;;;7835526;28;20162;-89
2023/12/11 12:43:42;;;;;;;3.43;0.97;;;9.10;99.90;;;;;;7836198;28;20205;-89
2023/12/11 12:47:28;;;;;;;3.47;1.13;;;9.00;99.90;;;;;;7838202;28;20269;-89
2023/12/11 12:51:13;;;;;;;1.90;1.00;;;8.90;99.90;;;;;;7848081;28;20200;-89
2023/12/11 12:54:59;;;;;;;3.60;1.07;;;8.90;99.90;;;;;;7869543;28;20689;-87
2023/12/11 12:58:45;;;;;;;2.77;1.30;;;8.80;99.90;;;;;;7871133;28;20566;-88
2023/12/11 13:02:31;;;;;;;2.77;1.23;;;8.80;99.90;;;;;;7858121;28;20178;-88
2023/12/11 13:06:27;;;;;;;3.57;1.10;;;8.80;99.90;;;;;;7843720;28;20711;-88
2023/12/11 13:10:14;;;;;;;5.47;0.90;;;8.80;99.90;;;;;;7873487;28;20659;-89
2023/12/11 13:14:02;;;;;;;1.53;0.93;;;8.80;99.90;;;;;;7861196;28;20239;-87
2023/12/11 13:17:53;;;;;;;4.13;0.70;;;8.80;99.90;;;;;;7846546;28;20169;-89
2023/12/11 13:21:39;;;;;;;5.07;0.80;;;8.80;99.90;;;;;;7872464;28;20161;-88
2023/12/11 13:25:25;;;;;;;3.73;1.00;;;8.80;99.90;;;;;;7853959;28;20194;-88
2023/12/11 13:29:11;;;;;;;1.80;1.00;;;8.70;99.90;;;;;;7853884;28;20170;-88
2023/12/11 13:32:58;;;;;;;1.73;0.97;;;8.70;99.90;;;;;;7871889;28;20268;-88
2023/12/11 13:36:44;;;;;;;5.83;1.20;;;8.70;99.90;;;;;;7847526;28;20659;-87
2023/12/11 13:40:31;;;;;;;2.13;1.10;;;8.70;99.90;;;;;;7872036;28;20197;-89
2023/12/11 13:44:18;;;;;;;4.63;1.33;;;8.70;99.90;;;;;;7860176;28;20223;-88
2023/12/11 13:48:03;;;;;;;3.07;1.23;;;8.70;99.90;;;;;;7867009;28;20185;-88
2023/12/11 13:51:49;;;;;;;1.50;1.10;;;8.70;99.90;;;;;;7848580;28;20204;-89
2023/12/11 13:55:44;;;;;;;2.53;1.30;;;8.70;99.90;;;;;;7839322;28;20248;-89
2023/12/11 13:59:30;;;;;;;5.10;1.30;;;8.60;99.90;;;;;;7839665;28;20223;-88
2023/12/11 14:03:20;;;;;;;6.03;3.47;;;8.60;99.90;;;;;;7839136;28;20178;-88
2023/12/11 14:07:05;;;;;;;6.57;3.17;;;8.70;99.90;;;;;;7852750;28;20196;-88
2023/12/11 14:10:53;;;;;;;3.63;1.33;;;8.60;99.90;;;;;;7841356;28;20205;-88
2023/12/11 14:14:46;;;;;;;7.43;1.90;;;8.60;99.90;;;;;;7865181;28;20233;-88
2023/12/11 14:18:33;;;;;;;2.63;1.67;;;8.70;99.90;;;;;;7862288;28;20181;-88
2023/12/11 14:22:19;;;;;;;3.40;1.20;;;8.70;99.90;;;;;;7841678;28;20170;-87
2023/12/11 14:26:05;;;;;;;3.43;1.30;;;8.60;99.90;;;;;;7849892;28;20231;-88
2023/12/11 14:29:55;;;;;;;2.50;0.97;;;8.60;99.90;;;;;;7885886;28;20180;-88
2023/12/11 14:33:41;;;;;;;2.73;1.43;;;8.60;99.90;;;;;;7901967;28;20202;-87
2023/12/11 14:37:26;;;;;;;4.97;1.00;;;8.60;99.90;;;;;;7855286;28;20239;-89
2023/12/11 14:41:13;;;;;;;4.07;1.30;;;8.60;99.90;;;;;;7840932;28;20758;-88
2023/12/11 14:44:59;;;;;;;5.93;1.50;;;8.60;99.90;;;;;;7838606;28;20280;-89
2023/12/11 14:48:48;;;;;;;4.37;1.23;;;8.60;99.90;;;;;;7839382;28;20178;-88
2023/12/11 14:52:34;;;;;;;5.90;1.13;;;8.60;99.90;;;;;;7838627;28;20224;-89
2023/12/11 14:56:28;;;;;;;5.23;1.13;;;8.60;99.90;;;;;;7839469;28;20241;-88
2023/12/11 15:00:14;;;;;;;4.10;1.27;;;8.60;99.90;;;;;;7838594;28;20209;-88
2023/12/11 15:04:04;;;;;;;3.37;1.20;;;8.60;99.90;;;;;;7838674;28;20683;-88
2023/12/11 15:07:50;;;;;;;7.07;1.47;;;8.60;99.90;;;;;;7843967;28;20169;-87
2023/12/11 15:11:35;;;;;;;3.03;1.10;;;8.60;99.90;;;;;;7854319;28;20218;-88
2023/12/11 15:15:21;;;;;;;3.60;1.43;;;8.60;99.90;;;;;;7836764;28;20259;-87
2023/12/11 15:19:07;;;;;;;2.93;1.10;;;8.50;99.90;;;;;;7853490;28;20314;-88
2023/12/11 15:22:53;;;;;;;5.70;1.70;;;8.60;99.90;;;;;;7849080;28;20193;-88
2023/12/11 15:26:40;;;;;;;8.20;1.80;;;8.50;99.90;;;;;;7838406;28;20347;-88
2023/12/11 15:30:26;;;;;;;4.97;1.97;;;8.50;99.90;;;;;;7836232;28;20182;-88
2023/12/11 15:34:12;;;;;;;6.03;1.90;;;8.50;99.90;;;;;;7840239;28;20245;-89
2023/12/11 15:37:58;;;;;;;3.10;1.30;;;8.50;99.90;;;;;;7835583;28;20638;-88
2023/12/11 15:41:43;;;;;;;3.23;1.07;;;8.50;99.90;;;;;;7864661;28;20542;-88
2023/12/11 15:45:29;;;;;;;6.60;1.47;;;8.50;99.90;;;;;;7848680;28;20205;-89
2023/12/11 15:49:15;;;;;;;4.97;1.00;;;8.60;99.90;;;;;;7836200;28;20178;-86
2023/12/11 15:53:03;;;;;;;7.37;1.53;;;8.60;99.90;;;;;;7835585;28;20729;-87
2023/12/11 15:56:48;;;;;;;4.37;1.20;;;8.60;99.90;;;;;;7835385;28;20361;-88
2023/12/11 16:00:34;;;;;;;3.93;1.00;;;8.60;99.90;;;;;;7852919;28;20200;-87
2023/12/11 16:04:20;;;;;;;5.07;1.30;;;8.60;99.90;;;;;;7849676;28;20205;-87
2023/12/11 16:08:05;;;;;;;4.23;1.33;;;8.50;99.90;;;;;;7866587;28;20654;-87
2023/12/11 16:11:51;;;;;;;5.77;1.30;;;8.50;99.90;;;;;;7866170;28;20677;-88
2023/12/11 16:15:36;;;;;;;6.47;2.73;;;8.50;99.90;;;;;;7851084;28;20194;-88
2023/12/11 16:19:22;;;;;;;5.50;1.37;;;8.50;99.90;;;;;;7835122;28;20174;-87
2023/12/11 16:23:11;;;;;;;3.67;1.07;;;8.50;99.90;;;;;;7858344;28;20213;-87
2023/12/11 16:26:56;;;;;;;4.63;2.23;;;8.50;99.90;;;;;;7872341;28;20549;-88
2023/12/11 16:30:42;;;;;;;3.77;1.20;;;8.60;99.90;;;;;;7872234;28;20243;-88
2023/12/11 16:34:31;;;;;;;2.60;0.97;;;8.60;99.90;;;;;;7858980;28;20888;-88
2023/12/11 16:38:17;;;;;;;3.87;1.10;;;8.60;99.90;;;;;;7865571;28;20182;-87
2023/12/11 16:42:03;;;;;;;7.20;1.30;;;8.70;99.90;;;;;;7849922;28;20196;-88
2023/12/11 16:45:49;;;;;;;4.87;1.30;;;8.70;99.90;;;;;;7864414;28;20544;-89
2023/12/11 16:49:34;;;;;;;8.57;1.87;;;8.70;99.90;;;;;;7860646;28;20575;-89
2023/12/11 16:53:20;;;;;;;5.57;1.57;;;8.70;99.90;;;;;;7866469;28;20210;-88
2023/12/11 16:57:06;;;;;;;2.50;1.07;;;8.60;99.90;;;;;;7841010;28;20545;-88
2023/12/11 17:00:52;;;;;;;3.03;1.17;;;8.60;99.90;;;;;;7854665;28;20919;-89
2023/12/11 17:04:40;;;;;;;4.23;1.00;;;8.60;99.90;;;;;;7858890;28;20205;-89
2023/12/11 17:08:26;;;;;;;4.87;1.13;;;8.60;99.90;;;;;;7864338;28;20243;-88
2023/12/11 17:12:12;;;;;;;6.00;0.90;;;8.60;99.90;;;;;;7854913;28;20300;-88
2023/12/11 17:15:58;;;;;;;3.03;0.80;;;8.60;99.90;;;;;;7850138;28;20217;-88
2023/12/11 17:19:44;;;;;;;5.60;1.37;;;8.50;99.90;;;;;;7854187;28;20685;-88
2023/12/11 17:23:29;;;;;;;3.37;0.97;;;8.50;99.90;;;;;;7862353;28;20667;-88
2023/12/11 17:27:15;;;;;;;2.50;0.93;;;8.50;99.90;;;;;;7861574;28;20650;-88
2023/12/11 17:31:01;;;;;;;1.63;0.80;;;8.50;99.90;;;;;;7864039;28;20694;-88
2023/12/11 17:34:46;;;;;;;2.83;0.93;;;8.50;99.90;;;;;;7851411;28;20213;-88
2023/12/11 17:38:45;;;;;;;2.80;0.90;;;8.50;99.90;;;;;;7846924;28;20189;-88
2023/12/11 17:42:31;;;;;;;3.03;0.90;;;8.50;99.90;;;;;;7853614;28;20185;-88
2023/12/11 17:46:17;;;;;;;2.23;0.80;;;8.40;99.90;;;;;;7847229;28;20244;-88
2023/12/11 17:50:03;;;;;;;2.17;1.13;;;8.40;99.90;;;;;;7850189;28;20197;-88
2023/12/11 17:53:49;;;;;;;3.00;0.77;;;8.30;99.90;;;;;;7858756;28;20224;-87
2023/12/11 17:57:34;;;;;;;4.37;1.23;;;8.30;99.90;;;;;;7849135;28;20185;-88
2023/12/11 18:01:20;;;;;;;2.47;1.10;;;8.40;99.90;;;;;;7865329;28;20205;-89
2023/12/11 18:05:06;;;;;;;2.97;1.10;;;8.40;99.90;;;;;;7848593;28;20252;-88
2023/12/11 18:08:51;;;;;;;3.40;1.00;;;8.40;99.90;;;;;;7848887;28;20558;-88
2023/12/11 18:12:37;;;;;;;4.03;0.87;;;8.40;99.90;;;;;;7858869;28;20194;-87
2023/12/11 18:16:23;;;;;;;2.10;1.00;;;8.50;99.90;;;;;;7862917;28;20697;-87
2023/12/11 18:20:09;;;;;;;1.97;0.80;;;8.50;99.90;;;;;;7869495;28;20205;-88
2023/12/11 18:23:55;;;;;;;3.13;1.50;;;8.50;99.90;;;;;;7871181;28;20296;-87
2023/12/11 18:27:40;;;;;;;2.10;1.30;;;8.50;99.90;;;;;;7894028;28;20198;-88
2023/12/11 18:31:26;;;;;;;2.87;1.23;;;8.50;99.90;;;;;;7867190;28;20216;-89
2023/12/11 18:35:12;;;;;;;2.90;1.37;;;8.40;99.90;;;;;;7860264;28;20771;-88
2023/12/11 18:38:58;;;;;;;2.93;1.00;;;8.50;99.90;;;;;;7848748;28;20201;-88
2023/12/11 18:42:44;;;;;;;1.87;1.20;;;8.40;99.90;;;;;;7849444;28;20186;-88
2023/12/11 18:46:31;;;;;;;4.53;1.50;;;8.40;99.90;;;;;;7855904;28;20213;-88
2023/12/11 18:50:17;;;;;;;2.67;1.47;;;8.40;99.90;;;;;;7865010;28;20224;-88
2023/12/11 18:54:02;;;;;;;3.60;1.80;;;8.40;99.90;;;;;;7841584;28;20863;-88
2023/12/11 18:57:48;;;;;;;3.47;1.63;;;8.40;99.90;;;;;;7861737;28;20185;-88
2023/12/11 19:01:33;;;;;;;3.43;1.40;;;8.40;99.90;;;;;;7867256;28;20193;-88
2023/12/11 19:05:19;;;;;;;2.47;1.60;;;8.30;99.90;;;;;;7867580;28;20320;-88
2023/12/11 19:09:07;;;;;;;2.17;0.93;;;8.30;99.90;;;;;;7867591;28;20208;-88
2023/12/11 19:12:55;;;;;;;2.20;1.07;;;8.30;99.90;;;;;;7836699;28;20202;-89
2023/12/11 19:16:40;;;;;;;2.37;1.50;;;8.30;99.90;;;;;;7867849;28;20284;-88
2023/12/11 19:20:26;;;;;;;2.20;1.47;;;8.30;99.90;;;;;;7868151;28;20169;-88
2023/12/11 19:24:12;;;;;;;1.80;1.03;;;8.20;99.90;;;;;;7848239;28;20194;-87
2023/12/11 19:27:58;;;;;;;4.83;1.27;;;8.20;99.90;;;;;;7859461;28;20217;-88
2023/12/11 19:31:44;;;;;;;3.17;1.17;;;8.20;99.90;;;;;;7853818;28;20181;-88
2023/12/11 19:35:29;;;;;;;2.23;1.00;;;8.20;99.90;;;;;;7855142;28;20316;-89
2023/12/11 19:39:15;;;;;;;3.13;1.10;;;8.10;99.90;;;;;;7855303;28;20208;-88
2023/12/11 19:43:00;;;;;;;3.53;1.00;;;8.10;99.90;;;;;;7854075;28;20185;-88
2023/12/11 19:46:49;;;;;;;3.57;1.10;;;8.00;99.90;;;;;;7847219;28;20216;-89
2023/12/11 19:50:35;;;;;;;2.40;1.07;;;8.00;99.90;;;;;;7848237;28;20205;-88
2023/12/11 19:54:20;;;;;;;4.17;1.27;;;8.00;99.90;;;;;;7857309;28;20212;-88